createdAt,value
2019-05-19T00:00:49.123Z,100.00
2019-05-19T00:03:17.424Z,100.00
2019-05-19T00:05:45.687Z,100.00
2019-05-19T00:08:13.971Z,100.00
2019-05-19T00:10:42.230Z,100.00
2019-05-19T00:13:10.529Z,100.00
2019-05-19T00:15:38.783Z,100.00
2019-05-19T00:18:07.106Z,100.00
2019-05-19T00:20:35.474Z,100.00
2019-05-19T00:23:03.758Z,100.00
2019-05-19T00:25:32.787Z,100.00
2019-05-19T00:28:01.119Z,100.00
2019-05-19T00:30:29.389Z,100.00
2019-05-19T00:32:57.664Z,100.00
2019-05-19T00:35:25.968Z,100.00
2019-05-19T00:37:54.293Z,100.00
2019-05-19T00:40:22.549Z,100.00
2019-05-19T00:42:50.810Z,100.00
2019-05-19T00:45:19.188Z,100.00
2019-05-19T00:47:47.529Z,100.00
2019-05-19T00:50:15.940Z,100.00
2019-05-19T00:52:44.292Z,100.00
2019-05-19T00:55:12.642Z,100.00
2019-05-19T00:57:41.055Z,100.00
2019-05-19T01:00:09.835Z,100.00
2019-05-19T01:02:38.112Z,100.00
2019-05-19T01:05:07.407Z,100.00
2019-05-19T01:07:36.703Z,100.00
2019-05-19T01:10:08.607Z,100.00
2019-05-19T01:12:36.860Z,100.00
2019-05-19T01:15:09.767Z,100.00
2019-05-19T01:17:38.208Z,100.00
2019-05-19T01:20:10.609Z,100.00
2019-05-19T01:22:38.998Z,100.00
2019-05-19T01:25:07.991Z,100.00
2019-05-19T01:27:36.326Z,100.00
2019-05-19T01:30:11.385Z,100.00
2019-05-19T01:32:39.658Z,100.00
2019-05-19T01:35:08.497Z,100.00
2019-05-19T01:37:37.870Z,100.00
2019-05-19T01:40:07.965Z,100.00
2019-05-19T01:42:36.609Z,100.00
2019-05-19T01:45:06.875Z,100.00
2019-05-19T01:47:35.163Z,100.00
2019-05-19T01:50:16.831Z,100.00
2019-05-19T01:52:35.115Z,100.00
2019-05-19T01:55:04.489Z,100.00
2019-05-19T01:57:33.804Z,100.00
2019-05-19T02:00:03.148Z,100.00
2019-05-19T02:02:31.837Z,100.00
2019-05-19T02:05:00.134Z,100.00
2019-05-19T02:07:28.417Z,100.00
2019-05-19T02:09:56.670Z,100.00
2019-05-19T02:12:25.922Z,100.00
2019-05-19T02:14:55.212Z,100.00
2019-05-19T02:17:23.469Z,100.00
2019-05-19T02:19:51.808Z,100.00
2019-05-19T02:22:21.067Z,100.00
2019-05-19T02:24:49.327Z,100.00
2019-05-19T02:27:17.643Z,100.00
2019-05-19T02:29:45.958Z,100.00
2019-05-19T02:32:14.228Z,100.00
2019-05-19T02:34:43.507Z,100.00
2019-05-19T02:37:11.772Z,100.00
2019-05-19T02:39:40.033Z,100.00
2019-05-19T02:42:08.572Z,100.00
2019-05-19T02:44:36.890Z,100.00
2019-05-19T02:47:05.629Z,100.00
2019-05-19T02:49:35.102Z,100.00
2019-05-19T02:52:04.641Z,100.00
2019-05-19T02:54:33.676Z,100.00
2019-05-19T02:57:03.244Z,100.00
2019-05-19T02:59:32.173Z,100.00
2019-05-19T03:02:02.106Z,100.00
2019-05-19T03:04:30.459Z,100.00
2019-05-19T03:06:58.773Z,100.00
2019-05-19T03:09:28.114Z,100.00
2019-05-19T03:11:56.379Z,100.00
2019-05-19T03:14:24.810Z,100.00
2019-05-19T03:16:53.152Z,100.00
2019-05-19T03:19:21.421Z,100.00
2019-05-19T03:21:51.720Z,100.00
2019-05-19T03:24:20.108Z,100.00
2019-05-19T03:26:49.233Z,100.00
2019-05-19T03:29:19.220Z,100.00
2019-05-19T03:31:58.518Z,100.00
2019-05-19T03:34:27.648Z,100.00
2019-05-19T03:36:55.945Z,100.00
2019-05-19T03:39:24.689Z,100.00
2019-05-19T03:41:52.947Z,100.00
2019-05-19T03:44:21.223Z,100.00
2019-05-19T03:46:49.509Z,100.00
2019-05-19T03:49:17.773Z,100.00
2019-05-19T03:51:46.030Z,100.00
2019-05-19T03:54:14.317Z,100.00
2019-05-19T03:56:42.609Z,100.00
2019-05-19T03:59:10.957Z,100.00
2019-05-19T04:01:39.302Z,100.00
2019-05-19T04:04:09.628Z,100.00
2019-05-19T04:06:37.920Z,100.00
2019-05-19T04:09:07.670Z,100.00
2019-05-19T04:11:36.070Z,100.00
2019-05-19T04:14:04.396Z,100.00
2019-05-19T04:16:32.658Z,100.00
2019-05-19T04:19:00.931Z,100.00
2019-05-19T04:21:38.793Z,100.00
2019-05-19T04:23:59.239Z,100.00
2019-05-19T04:26:28.560Z,100.00
2019-05-19T04:28:56.816Z,100.00
2019-05-19T04:31:26.336Z,100.00
2019-05-19T04:33:54.625Z,100.00
2019-05-19T04:36:22.892Z,100.00
2019-05-19T04:38:51.166Z,100.00
2019-05-19T04:41:19.435Z,100.00
2019-05-19T04:43:47.705Z,100.00
2019-05-19T04:46:16.997Z,100.00
2019-05-19T04:48:45.266Z,100.00
2019-05-19T04:51:13.809Z,100.00
2019-05-19T04:53:42.033Z,100.00
2019-05-19T04:56:10.308Z,100.00
2019-05-19T04:58:38.604Z,100.00
2019-05-19T05:01:06.869Z,100.00
2019-05-19T05:03:35.145Z,100.00
2019-05-19T05:06:03.431Z,100.00
2019-05-19T05:08:31.701Z,100.00
2019-05-19T05:10:59.983Z,100.00
2019-05-19T05:13:28.263Z,100.00
2019-05-19T05:15:56.531Z,100.00
2019-05-19T05:18:26.858Z,100.00
2019-05-19T05:20:55.152Z,100.00
2019-05-19T05:23:23.411Z,100.00
2019-05-19T05:25:51.682Z,100.00
2019-05-19T05:28:19.990Z,100.00
2019-05-19T05:30:48.273Z,100.00
2019-05-19T05:33:16.539Z,100.00
2019-05-19T05:35:44.822Z,100.00
2019-05-19T05:38:13.093Z,100.00
2019-05-19T05:40:42.391Z,100.00
2019-05-19T05:43:10.691Z,100.00
2019-05-19T05:45:38.956Z,100.00
2019-05-19T05:48:07.251Z,100.00
2019-05-19T05:50:35.521Z,100.00
2019-05-19T05:53:03.790Z,100.00
2019-05-19T05:55:32.070Z,100.00
2019-05-19T05:58:00.306Z,100.00
2019-05-19T06:00:28.591Z,100.00
2019-05-19T06:02:56.875Z,100.00
2019-05-19T06:05:25.171Z,100.00
2019-05-19T06:07:53.441Z,100.00
2019-05-19T06:10:21.731Z,100.00
2019-05-19T06:12:49.981Z,100.00
2019-05-19T06:15:18.257Z,100.00
2019-05-19T06:17:46.543Z,100.00
2019-05-19T06:20:16.857Z,100.00
2019-05-19T06:22:56.023Z,100.00
2019-05-19T06:25:15.267Z,100.00
2019-05-19T06:27:43.540Z,100.00
2019-05-19T06:30:12.161Z,100.00
2019-05-19T06:32:45.043Z,100.00
2019-05-19T06:35:13.855Z,100.00
2019-05-19T06:37:42.166Z,100.00
2019-05-19T06:40:10.797Z,100.00
2019-05-19T06:42:40.163Z,100.00
2019-05-19T06:45:08.782Z,100.00
2019-05-19T06:47:37.159Z,100.00
2019-05-19T06:50:07.255Z,100.00
2019-05-19T06:52:35.521Z,100.00
2019-05-19T06:55:05.223Z,100.00
2019-05-19T06:57:33.542Z,100.00
2019-05-19T07:00:01.823Z,100.00
2019-05-19T07:02:30.096Z,100.00
2019-05-19T07:04:58.378Z,100.00
2019-05-19T07:07:26.635Z,100.00
2019-05-19T07:09:58.591Z,100.00
2019-05-19T07:12:24.910Z,100.00
2019-05-19T07:14:53.178Z,100.00
2019-05-19T07:17:21.437Z,100.00
2019-05-19T07:19:49.711Z,100.00
2019-05-19T07:22:17.988Z,100.00
2019-05-19T07:24:46.270Z,100.00
2019-05-19T07:27:14.560Z,100.00
2019-05-19T07:29:42.839Z,100.00
2019-05-19T07:32:11.111Z,100.00
2019-05-19T07:34:39.413Z,100.00
2019-05-19T07:37:07.732Z,100.00
2019-05-19T07:39:36.027Z,100.00
2019-05-19T07:42:04.366Z,100.00
2019-05-19T07:44:32.622Z,100.00
2019-05-19T07:47:00.914Z,100.00
2019-05-19T07:49:29.200Z,100.00
2019-05-19T07:51:57.654Z,100.00
2019-05-19T07:54:26.026Z,100.00
2019-05-19T07:56:54.280Z,100.00
2019-05-19T07:59:22.557Z,100.00
2019-05-19T08:01:50.889Z,100.00
2019-05-19T08:04:19.292Z,100.00
2019-05-19T08:06:47.726Z,100.00
2019-05-19T08:09:16.948Z,100.00
2019-05-19T08:11:45.243Z,100.00
2019-05-19T08:14:13.514Z,100.00
2019-05-19T08:16:41.821Z,100.00
2019-05-19T08:19:10.164Z,100.00
2019-05-19T08:21:38.443Z,100.00
2019-05-19T08:24:07.286Z,100.00
2019-05-19T08:26:36.484Z,100.00
2019-05-19T08:29:04.855Z,100.00
2019-05-19T08:31:33.463Z,100.00
2019-05-19T08:34:01.774Z,100.00
2019-05-19T08:36:30.104Z,98.08
2019-05-19T08:38:58.415Z,99.50
2019-05-19T08:41:26.815Z,99.50
2019-05-19T08:43:55.075Z,98.37
2019-05-19T08:46:23.354Z,98.00
2019-05-19T08:48:51.657Z,97.29
2019-05-19T08:51:19.926Z,96.32
2019-05-19T08:53:48.213Z,96.01
2019-05-19T08:56:16.476Z,96.00
2019-05-19T08:58:44.762Z,95.37
2019-05-19T09:01:13.031Z,95.68
2019-05-19T09:03:41.382Z,96.90
2019-05-19T09:06:09.672Z,98.42
2019-05-19T09:08:38.011Z,97.12
2019-05-19T09:11:06.303Z,96.57
2019-05-19T09:13:34.596Z,96.57
2019-05-19T09:16:04.276Z,97.30
2019-05-19T09:18:32.562Z,96.24
2019-05-19T09:21:00.824Z,95.16
2019-05-19T09:23:29.127Z,95.65
2019-05-19T09:25:57.444Z,93.69
2019-05-19T09:28:25.817Z,93.31
2019-05-19T09:30:54.101Z,92.56
2019-05-19T09:33:22.382Z,93.62
2019-05-19T09:35:50.643Z,93.01
2019-05-19T09:38:18.934Z,91.05
2019-05-19T09:40:47.193Z,93.29
2019-05-19T09:43:15.557Z,93.85
2019-05-19T09:45:43.877Z,93.14
2019-05-19T09:48:12.238Z,91.06
2019-05-19T09:50:40.527Z,88.68
2019-05-19T09:53:08.822Z,87.34
2019-05-19T09:55:37.048Z,87.08
2019-05-19T09:58:05.367Z,87.38
2019-05-19T10:00:34.632Z,87.12
2019-05-19T10:03:02.916Z,88.61
2019-05-19T10:05:31.190Z,87.43
2019-05-19T10:07:59.455Z,86.46
2019-05-19T10:10:51.938Z,84.07
2019-05-19T10:13:20.661Z,82.52
2019-05-19T10:15:49.007Z,83.82
2019-05-19T10:18:19.210Z,82.83
2019-05-19T10:20:50.305Z,81.82
2019-05-19T10:23:17.478Z,81.99
2019-05-19T10:25:45.734Z,78.63
2019-05-19T10:28:14.024Z,76.61
2019-05-19T10:30:42.280Z,79.05
2019-05-19T10:33:10.570Z,78.78
2019-05-19T10:35:38.856Z,76.87
2019-05-19T10:38:07.211Z,78.19
2019-05-19T10:40:35.475Z,77.63
2019-05-19T10:43:03.888Z,77.47
2019-05-19T10:45:32.150Z,76.39
2019-05-19T10:48:00.436Z,74.81
2019-05-19T10:50:28.703Z,73.98
2019-05-19T10:52:56.987Z,75.05
2019-05-19T10:55:35.961Z,77.29
2019-05-19T10:57:55.334Z,75.35
2019-05-19T11:00:23.732Z,73.85
2019-05-19T11:02:51.983Z,74.07
2019-05-19T11:05:20.268Z,74.79
2019-05-19T11:07:48.555Z,72.03
2019-05-19T11:10:16.818Z,70.08
2019-05-19T11:12:46.924Z,67.97
2019-05-19T11:15:15.362Z,69.84
2019-05-19T11:17:43.712Z,68.48
2019-05-19T11:20:12.045Z,67.75
2019-05-19T11:22:40.311Z,66.03
2019-05-19T11:25:08.770Z,64.74
2019-05-19T11:27:37.018Z,63.30
2019-05-19T11:30:06.748Z,61.89
2019-05-19T11:32:35.025Z,64.42
2019-05-19T11:35:03.766Z,63.97
2019-05-19T11:37:32.063Z,63.45
2019-05-19T11:40:00.452Z,61.53
2019-05-19T11:42:28.733Z,60.44
2019-05-19T11:44:57.025Z,58.12
2019-05-19T11:47:25.308Z,57.93
2019-05-19T11:49:53.611Z,56.96
2019-05-19T11:52:21.879Z,57.04
2019-05-19T11:54:50.170Z,55.59
2019-05-19T11:57:18.448Z,54.97
2019-05-19T11:59:46.711Z,53.99
2019-05-19T12:02:14.985Z,54.92
2019-05-19T12:04:43.264Z,52.63
2019-05-19T12:07:11.566Z,52.46
2019-05-19T12:09:47.269Z,50.22
2019-05-19T12:12:17.507Z,51.34
2019-05-19T12:14:45.969Z,48.13
2019-05-19T12:17:14.239Z,48.02
2019-05-19T12:19:42.490Z,49.04
2019-05-19T12:22:10.784Z,48.37
2019-05-19T12:24:39.123Z,48.58
2019-05-19T12:27:07.389Z,45.55
2019-05-19T12:29:35.644Z,44.00
2019-05-19T12:32:03.920Z,44.96
2019-05-19T12:34:32.421Z,43.98
2019-05-19T12:37:00.685Z,42.72
2019-05-19T12:39:29.089Z,43.15
2019-05-19T12:41:57.415Z,42.68
2019-05-19T12:44:25.695Z,39.37
2019-05-19T12:46:53.970Z,38.90
2019-05-19T12:49:22.249Z,40.97
2019-05-19T12:51:50.535Z,42.37
2019-05-19T12:54:18.831Z,42.29
2019-05-19T12:56:47.075Z,41.41
2019-05-19T12:59:15.364Z,42.24
2019-05-19T13:01:43.723Z,40.50
2019-05-19T13:04:12.072Z,37.59
2019-05-19T13:06:40.326Z,36.25
2019-05-19T13:09:09.665Z,36.01
2019-05-19T13:11:37.956Z,35.85
2019-05-19T13:14:06.307Z,39.64
2019-05-19T13:16:34.623Z,43.89
2019-05-19T13:19:02.904Z,39.89
2019-05-19T13:21:31.162Z,39.89
2019-05-19T13:23:59.482Z,38.15
2019-05-19T13:26:27.761Z,38.54
2019-05-19T13:28:56.020Z,37.14
2019-05-19T13:31:24.292Z,35.49
2019-05-19T13:33:52.563Z,34.40
2019-05-19T13:36:20.827Z,36.77
2019-05-19T13:38:49.095Z,39.57
2019-05-19T13:41:17.377Z,36.58
2019-05-19T13:43:45.678Z,35.97
2019-05-19T13:46:13.953Z,32.86
2019-05-19T13:48:42.233Z,32.50
2019-05-19T13:51:10.527Z,35.65
2019-05-19T13:53:38.836Z,39.14
2019-05-19T13:56:07.119Z,36.27
2019-05-19T13:58:35.412Z,34.77
2019-05-19T14:01:06.676Z,36.32
2019-05-19T14:03:34.950Z,36.42
2019-05-19T14:06:03.250Z,35.69
2019-05-19T14:08:32.558Z,33.08
2019-05-19T14:11:00.837Z,32.39
2019-05-19T14:13:29.096Z,33.60
2019-05-19T14:15:57.466Z,32.74
2019-05-19T14:18:25.848Z,32.01
2019-05-19T14:20:54.120Z,31.64
2019-05-19T14:23:22.427Z,30.86
2019-05-19T14:25:50.701Z,30.69
2019-05-19T14:28:18.966Z,31.17
2019-05-19T14:30:47.266Z,29.83
2019-05-19T14:33:15.518Z,30.00
2019-05-19T14:35:43.816Z,30.65
2019-05-19T14:38:12.075Z,30.39
2019-05-19T14:40:40.341Z,29.32
2019-05-19T14:43:08.655Z,31.53
2019-05-19T14:45:36.919Z,29.72
2019-05-19T14:48:06.270Z,29.48
2019-05-19T14:50:34.632Z,29.45
2019-05-19T14:53:02.899Z,29.46
2019-05-19T14:55:31.172Z,27.06
2019-05-19T14:57:59.441Z,26.63
2019-05-19T15:00:27.717Z,27.73
2019-05-19T15:02:55.980Z,27.11
2019-05-19T15:05:25.265Z,26.87
2019-05-19T15:07:53.562Z,26.95
2019-05-19T15:10:23.942Z,29.27
2019-05-19T15:12:53.855Z,28.94
2019-05-19T15:15:22.197Z,29.40
2019-05-19T15:17:50.546Z,27.78
2019-05-19T15:20:19.428Z,29.60
2019-05-19T15:22:47.716Z,28.03
2019-05-19T15:25:16.844Z,26.89
2019-05-19T15:27:59.335Z,30.90
2019-05-19T15:30:16.352Z,31.08
2019-05-19T15:32:44.700Z,28.82
2019-05-19T15:35:13.306Z,27.40
2019-05-19T15:37:41.680Z,28.50
2019-05-19T15:40:10.319Z,29.59
2019-05-19T15:42:46.631Z,27.30
2019-05-19T15:45:22.091Z,31.64
2019-05-19T15:47:53.627Z,35.49
2019-05-19T15:50:21.975Z,32.54
2019-05-19T15:52:50.231Z,33.23
2019-05-19T15:55:18.486Z,33.35
2019-05-19T15:58:15.732Z,32.81
2019-05-19T16:00:38.498Z,33.08
2019-05-19T16:03:07.896Z,30.50
2019-05-19T16:05:36.296Z,30.15
2019-05-19T16:08:04.821Z,30.21
2019-05-19T16:10:33.122Z,28.23
2019-05-19T16:13:01.384Z,30.87
2019-05-19T16:15:29.678Z,33.05
2019-05-19T16:17:57.967Z,33.97
2019-05-19T16:20:27.449Z,36.30
2019-05-19T16:22:56.683Z,37.36
2019-05-19T16:25:28.209Z,37.15
2019-05-19T16:27:59.808Z,37.37
2019-05-19T16:30:28.104Z,37.90
2019-05-19T16:32:56.495Z,38.61
2019-05-19T16:35:24.853Z,39.88
2019-05-19T16:37:53.109Z,43.00
2019-05-19T16:40:22.734Z,59.76
2019-05-19T16:42:51.165Z,79.49
2019-05-19T16:45:19.907Z,100.00
2019-05-19T16:47:48.246Z,99.62
2019-05-19T16:50:17.601Z,100.00
2019-05-19T16:52:45.898Z,100.00
2019-05-19T16:55:25.479Z,100.00
2019-05-19T16:57:54.119Z,100.00
2019-05-19T17:00:25.996Z,100.00
2019-05-19T17:02:54.369Z,100.00
2019-05-19T17:05:22.642Z,100.00
2019-05-19T17:07:50.921Z,100.00
2019-05-19T17:10:19.740Z,100.00
2019-05-19T17:12:48.018Z,100.00
2019-05-19T17:15:17.637Z,100.00
2019-05-19T17:17:46.963Z,100.00
2019-05-19T17:20:16.788Z,100.00
2019-05-19T17:22:45.105Z,95.62
2019-05-19T17:25:13.562Z,100.00
2019-05-19T17:27:41.845Z,100.00
2019-05-19T17:30:11.079Z,100.00
2019-05-19T17:32:39.440Z,100.00
2019-05-19T17:35:08.066Z,95.26
2019-05-19T17:37:36.460Z,98.22
2019-05-19T17:40:06.210Z,99.99
2019-05-19T17:42:37.174Z,100.00
2019-05-19T17:45:06.187Z,97.48
2019-05-19T17:47:34.663Z,96.61
2019-05-19T17:50:03.035Z,100.00
2019-05-19T17:52:32.290Z,100.00
2019-05-19T17:55:03.193Z,100.00
2019-05-19T17:57:33.142Z,100.00
2019-05-19T18:00:02.266Z,100.00
2019-05-19T18:02:30.615Z,100.00
2019-05-19T18:05:01.348Z,100.00
2019-05-19T18:07:29.683Z,100.00
2019-05-19T18:09:59.874Z,100.00
2019-05-19T18:12:28.170Z,100.00
2019-05-19T18:14:56.455Z,100.00
2019-05-19T18:17:24.748Z,100.00
2019-05-19T18:19:53.016Z,100.00
2019-05-19T18:22:21.278Z,100.00
2019-05-19T18:24:49.566Z,100.00
2019-05-19T18:27:17.824Z,100.00
2019-05-19T18:29:47.138Z,100.00
2019-05-19T18:32:15.414Z,100.00
2019-05-19T18:34:43.670Z,100.00
2019-05-19T18:37:13.527Z,100.00
2019-05-19T18:39:42.076Z,100.00
2019-05-19T18:42:13.098Z,100.00
2019-05-19T18:44:41.356Z,100.00
2019-05-19T18:47:09.660Z,100.00
2019-05-19T18:49:40.153Z,100.00
2019-05-19T18:52:08.461Z,100.00
2019-05-19T18:54:36.793Z,100.00
2019-05-19T18:57:06.117Z,100.00
2019-05-19T18:59:46.527Z,100.00
2019-05-19T19:02:06.418Z,100.00
2019-05-19T19:04:34.822Z,100.00
2019-05-19T19:07:03.148Z,100.00
2019-05-19T19:09:32.545Z,100.00
2019-05-19T19:12:02.368Z,100.00
2019-05-19T19:14:31.530Z,100.00
2019-05-19T19:17:01.813Z,100.00
2019-05-19T19:19:50.975Z,100.00
2019-05-19T19:22:25.383Z,100.00
2019-05-19T19:24:53.695Z,100.00
2019-05-19T19:27:22.072Z,100.00
2019-05-19T19:30:02.835Z,100.00
2019-05-19T19:32:21.376Z,100.00
2019-05-19T19:34:49.692Z,100.00
2019-05-19T19:37:18.961Z,100.00
2019-05-19T19:39:49.283Z,100.00
2019-05-19T19:42:17.640Z,100.00
2019-05-19T19:44:45.891Z,100.00
2019-05-19T19:47:14.141Z,100.00
2019-05-19T19:49:42.430Z,100.00
2019-05-19T19:52:11.097Z,100.00
2019-05-19T19:54:39.370Z,100.00
2019-05-19T19:57:12.270Z,100.00
2019-05-19T19:59:40.630Z,100.00
2019-05-19T20:02:08.921Z,100.00
2019-05-19T20:04:37.201Z,100.00
2019-05-19T20:07:07.118Z,100.00
2019-05-19T20:09:35.566Z,100.00
2019-05-19T20:12:06.431Z,100.00
2019-05-19T20:14:38.611Z,100.00
2019-05-19T20:17:07.266Z,100.00
2019-05-19T20:19:35.542Z,100.00
2019-05-19T20:22:03.812Z,100.00
2019-05-19T20:24:32.082Z,100.00
2019-05-19T20:27:03.539Z,100.00
2019-05-19T20:29:31.928Z,100.00
2019-05-19T20:32:00.210Z,100.00
2019-05-19T20:34:28.495Z,100.00
2019-05-19T20:36:56.850Z,100.00
2019-05-19T20:39:25.140Z,100.00
2019-05-19T20:41:54.964Z,100.00
2019-05-19T20:44:26.120Z,100.00
2019-05-19T20:46:54.392Z,100.00
2019-05-19T20:49:22.672Z,100.00
2019-05-19T20:51:53.904Z,100.00
2019-05-19T20:54:22.184Z,100.00
2019-05-19T20:56:50.446Z,100.00
2019-05-19T20:59:18.719Z,100.00
2019-05-19T21:01:59.204Z,100.00
2019-05-19T21:04:27.418Z,100.00
2019-05-19T21:06:58.539Z,100.00
2019-05-19T21:09:26.874Z,100.00
2019-05-19T21:11:57.634Z,100.00
2019-05-19T21:14:26.035Z,100.00
2019-05-19T21:16:54.477Z,100.00
2019-05-19T21:19:22.805Z,100.00
2019-05-19T21:21:51.073Z,100.00
2019-05-19T21:24:19.460Z,100.00
2019-05-19T21:26:47.790Z,100.00
2019-05-19T21:29:16.121Z,100.00
2019-05-19T21:31:44.403Z,100.00
2019-05-19T21:34:12.679Z,100.00
2019-05-19T21:36:40.952Z,100.00
2019-05-19T21:39:09.305Z,100.00
2019-05-19T21:41:37.635Z,100.00
2019-05-19T21:44:05.976Z,100.00
2019-05-19T21:46:34.276Z,100.00
2019-05-19T21:49:05.724Z,100.00
2019-05-19T21:54:36.791Z,100.00
2019-05-19T22:00:14.806Z,100.00
2019-05-19T22:02:43.079Z,100.00
2019-05-19T22:05:11.960Z,100.00
2019-05-19T22:07:47.772Z,100.00
2019-05-19T22:10:16.123Z,100.00
2019-05-19T22:12:46.073Z,100.00
2019-05-19T22:15:14.403Z,100.00
2019-05-19T22:17:43.690Z,100.00
2019-05-19T22:20:13.077Z,100.00
2019-05-19T22:22:41.303Z,100.00
2019-05-19T22:25:09.844Z,100.00
2019-05-19T22:27:39.278Z,100.00
2019-05-19T22:30:10.236Z,100.00
2019-05-19T22:32:38.498Z,100.00
2019-05-19T22:35:07.039Z,100.00
2019-05-19T22:37:37.277Z,100.00
2019-05-19T22:40:18.793Z,100.00
2019-05-19T22:42:47.108Z,100.00
2019-05-19T22:45:15.467Z,100.00
2019-05-19T22:47:43.732Z,100.00
2019-05-19T22:50:12.236Z,100.00
2019-05-19T22:52:40.503Z,100.00
2019-05-19T22:55:09.005Z,100.00
2019-05-19T22:57:37.397Z,100.00
2019-05-19T23:00:08.793Z,100.00
2019-05-19T23:02:38.119Z,100.00
2019-05-19T23:05:07.014Z,100.00
2019-05-19T23:07:35.618Z,100.00
2019-05-19T23:10:07.714Z,100.00
2019-05-19T23:12:37.069Z,100.00
2019-05-19T23:15:09.663Z,100.00
2019-05-19T23:17:38.862Z,100.00
2019-05-19T23:20:07.278Z,100.00
2019-05-19T23:22:35.623Z,100.00
2019-05-19T23:25:08.673Z,100.00
2019-05-19T23:27:36.959Z,100.00
2019-05-19T23:30:07.791Z,100.00
2019-05-19T23:32:37.125Z,100.00
2019-05-19T23:35:06.823Z,100.00
2019-05-19T23:37:35.151Z,100.00
2019-05-19T23:40:06.569Z,100.00
2019-05-19T23:42:35.107Z,100.00
2019-05-19T23:45:04.619Z,100.00
2019-05-19T23:47:32.891Z,100.00
2019-05-19T23:50:07.391Z,100.00
2019-05-19T23:52:35.645Z,100.00
2019-05-19T23:55:05.559Z,100.00
2019-05-19T23:57:34.740Z,100.00
